Time;durP1;ratioP1;P1;durP2;ratioP2;P2;SDS_P1;SDS_P2;PMS_P1;PMS_P2;Temp;Humidity;BMP_temperature;BMP_pressure;BME280_temperature;BME280_humidity;BME280_pressure;Samples;Min_cycle;Max_cycle;Signal;HPM_P1;HPM_P2
2022/01/18 00:00:49;;;;;;;15.03;6.87;;;;;;;5.89;100.00;101281.03;5031559;28;20050;-76
2022/01/18 00:03:18;;;;;;;11.48;5.93;;;;;;;5.92;100.00;101286.34;5030522;28;20495;-76
2022/01/18 00:05:49;;;;;;;11.75;5.22;;;;;;;5.97;100.00;101282.38;5031157;28;20053;-76
2022/01/18 00:08:19;;;;;;;13.82;6.18;;;;;;;6.01;100.00;101280.88;5027377;28;20050;-75
2022/01/18 00:10:49;;;;;;;19.40;7.10;;;;;;;6.01;100.00;101281.75;5022325;28;20056;-75
2022/01/18 00:16:12;;;;;;;13.75;6.32;;;;;;;6.01;100.00;101276.63;5034062;28;20049;-75
2022/01/18 00:18:41;;;;;;;14.30;6.53;;;;;;;6.02;100.00;101280.06;5032379;28;20048;-74
2022/01/18 00:21:21;;;;;;;14.32;6.70;;;;;;;6.01;100.00;101268.03;5031781;28;20109;-74
2022/01/18 00:23:52;;;;;;;14.80;6.25;;;;;;;5.97;100.00;101272.09;5045137;28;20075;-76
2022/01/18 00:26:21;;;;;;;14.73;6.85;;;;;;;5.99;100.00;101277.34;5020056;28;20054;-74
2022/01/18 00:28:54;;;;;;;13.13;6.63;;;;;;;6.03;100.00;101267.31;5011837;28;20495;-74
2022/01/18 00:34:19;;;;;;;18.67;7.15;;;;;;;6.11;100.00;101275.44;5018765;28;20138;-75
2022/01/18 00:36:59;;;;;;;17.98;7.18;;;;;;;6.13;100.00;101278.09;5030729;28;20049;-74
2022/01/18 00:39:28;;;;;;;16.50;7.47;;;;;;;6.15;100.00;101272.25;5018566;28;20449;-74
2022/01/18 00:41:57;;;;;;;13.48;6.72;;;;;;;6.19;100.00;101265.59;5031134;28;20406;-73
2022/01/18 00:44:26;;;;;;;15.40;6.47;;;;;;;6.19;100.00;101263.03;5017357;28;20505;-74
2022/01/18 00:46:56;;;;;;;16.92;6.95;;;;;;;6.23;100.00;101264.94;5030208;28;20071;-74
2022/01/18 00:49:24;;;;;;;14.13;6.63;;;;;;;6.23;100.00;101259.81;5030981;28;20136;-74
2022/01/18 00:51:56;;;;;;;16.45;6.85;;;;;;;6.24;100.00;101259.91;5030538;28;20115;-74
2022/01/18 00:54:32;;;;;;;15.93;6.88;;;;;;;6.26;100.00;101260.00;5029232;28;20125;-73
2022/01/18 00:57:01;;;;;;;18.02;6.78;;;;;;;6.26;100.00;101260.00;5029669;28;20515;-74
2022/01/18 00:59:30;;;;;;;15.48;6.70;;;;;;;6.25;100.00;101261.69;5030608;28;20057;-74
2022/01/18 01:02:00;;;;;;;16.17;7.03;;;;;;;6.25;100.00;101260.78;5016422;28;20168;-72
2022/01/18 01:04:33;;;;;;;14.82;6.85;;;;;;;6.24;100.00;101264.16;5030135;28;20079;-75
2022/01/18 01:07:01;;;;;;;16.13;7.35;;;;;;;6.25;100.00;101273.63;5030870;28;20045;-75
2022/01/18 01:09:30;;;;;;;16.65;7.88;;;;;;;6.21;100.00;101271.72;5033143;28;20042;-73
2022/01/18 01:11:58;;;;;;;15.07;7.30;;;;;;;6.10;100.00;101278.81;5023340;28;20053;-75
2022/01/18 01:14:28;;;;;;;15.25;7.18;;;;;;;6.01;100.00;101279.19;5030160;28;20053;-75
2022/01/18 01:17:08;;;;;;;15.77;7.05;;;;;;;5.94;100.00;101282.22;5030233;28;20052;-76
2022/01/18 01:36:48;;;;;;;14.30;6.85;;;;;;;5.90;100.00;101293.06;5029787;28;20176;-76
2022/01/18 01:42:12;;;;;;;12.90;5.70;;;;;;;5.82;100.00;101296.91;5030133;28;20064;-77
2022/01/18 01:44:45;;;;;;;13.32;6.20;;;;;;;5.79;100.00;101297.59;5030198;28;20411;-76
2022/01/18 01:47:18;;;;;;;11.07;5.18;;;;;;;5.80;100.00;101295.91;5030928;28;20103;-75
2022/01/18 01:49:50;;;;;;;13.23;6.65;;;;;;;5.83;100.00;101303.78;5013066;28;20169;-75
2022/01/18 01:52:22;;;;;;;14.23;5.57;;;;;;;5.76;100.00;101293.97;5031569;28;20658;-76
2022/01/18 01:54:51;;;;;;;11.83;6.07;;;;;;;5.79;100.00;101296.69;5012518;28;20114;-75
2022/01/18 01:57:19;;;;;;;25.80;7.10;;;;;;;5.83;100.00;101298.66;5030579;28;20049;-76
2022/01/18 01:59:49;;;;;;;12.43;6.13;;;;;;;5.86;100.00;101294.59;5029888;28;20158;-76
2022/01/18 02:02:17;;;;;;;12.55;6.65;;;;;;;5.87;100.00;101291.22;5030264;28;20096;-75
2022/01/18 02:04:47;;;;;;;14.32;5.97;;;;;;;5.88;100.00;101287.84;5029464;28;20546;-76
2022/01/18 02:07:16;;;;;;;12.95;6.05;;;;;;;5.88;100.00;101287.84;5032308;28;20099;-76
2022/01/18 02:09:44;;;;;;;14.73;7.07;;;;;;;5.72;100.00;101268.91;5031540;28;20115;-76
2022/01/18 02:12:18;;;;;;;16.50;5.53;;;;;;;5.78;100.00;101300.09;5026176;28;20042;-75
2022/01/18 02:14:52;;;;;;;12.02;6.68;;;;;;;5.74;100.00;101287.84;5029721;28;20049;-76
2022/01/18 02:23:00;;;;;;;15.43;5.93;;;;;;;5.75;100.00;101305.03;4984028;28;20054;-77
2022/01/18 02:25:36;;;;;;;11.70;5.75;;;;;;;5.76;100.00;101299.09;5026212;28;20557;-78
2022/01/18 02:28:05;;;;;;;11.98;5.72;;;;;;;5.74;100.00;101298.13;5004136;28;20085;-79
2022/01/18 02:30:33;;;;;;;13.73;5.78;;;;;;;5.73;100.00;101296.38;5013429;28;20053;-78
2022/01/18 02:33:02;;;;;;;11.35;5.38;;;;;;;5.72;100.00;101295.47;5024578;28;20054;-79
2022/01/18 02:35:36;;;;;;;12.13;6.18;;;;;;;5.73;100.00;101293.81;5015209;28;20515;-77
2022/01/18 02:38:06;;;;;;;14.30;6.18;;;;;;;5.70;100.00;101291.91;5012945;28;20133;-78
2022/01/18 02:40:35;;;;;;;10.43;5.13;;;;;;;5.71;100.00;101305.66;5013472;28;20570;-77
2022/01/18 02:45:52;;;;;;;11.02;5.70;;;;;;;5.70;100.00;101302.19;5032239;28;20041;-78
2022/01/18 02:48:25;;;;;;;12.80;5.95;;;;;;;5.71;100.00;101303.09;5033035;28;20049;-78
2022/01/18 02:50:55;;;;;;;12.23;6.40;;;;;;;5.66;100.00;101301.16;5032915;28;20644;-78
2022/01/18 02:53:24;;;;;;;12.50;5.97;;;;;;;5.64;100.00;101310.44;5032683;28;20049;-77
2022/01/18 02:55:53;;;;;;;12.75;5.82;;;;;;;5.66;100.00;101306.28;5032732;28;20061;-78
2022/01/18 02:58:26;;;;;;;12.85;5.70;;;;;;;5.72;100.00;101307.41;5032606;28;20107;-78
2022/01/18 03:03:41;;;;;;;13.45;5.63;;;;;;;5.76;100.00;101306.81;5049385;28;20414;-78
2022/01/18 03:06:11;;;;;;;15.52;6.35;;;;;;;5.78;100.00;101305.22;5037988;28;20461;-77
2022/01/18 03:08:40;;;;;;;9.98;4.40;;;;;;;5.75;100.00;101298.22;5035829;28;20513;-78
2022/01/18 03:11:08;;;;;;;13.30;6.07;;;;;;;5.80;100.00;101304.50;5032465;28;20053;-78
2022/01/18 03:13:37;;;;;;;16.90;6.85;;;;;;;5.84;100.00;101300.41;5014532;28;20499;-76
2022/01/18 03:16:06;;;;;;;13.98;6.30;;;;;;;5.69;100.00;101297.88;5032572;28;20085;-77
2022/01/18 03:18:35;;;;;;;13.60;6.95;;;;;;;5.78;100.00;101305.22;5033684;28;20103;-75
2022/01/18 03:21:03;;;;;;;16.52;6.50;;;;;;;5.71;100.00;101313.38;5032558;28;20076;-75
2022/01/18 03:23:33;;;;;;;16.33;6.85;;;;;;;5.67;100.00;101313.16;5045710;28;20059;-76
2022/01/18 03:26:04;;;;;;;20.83;7.30;;;;;;;5.67;100.00;101323.44;5025598;28;20065;-75
2022/01/18 03:28:31;;;;;;;14.73;6.72;;;;;;;5.67;100.00;101320.00;5013490;28;20049;-75
2022/01/18 03:31:00;;;;;;;15.20;7.78;;;;;;;5.55;100.00;101307.34;5001513;28;20140;-76
2022/01/18 03:33:30;;;;;;;15.07;7.45;;;;;;;5.60;100.00;101316.19;5029121;28;20077;-78
2022/01/18 03:35:58;;;;;;;17.17;5.85;;;;;;;5.59;100.00;101322.13;5013883;28;20098;-75
2022/01/18 03:38:29;;;;;;;19.73;8.02;;;;;;;5.61;100.00;101317.97;5012628;28;20491;-76
2022/01/18 03:41:00;;;;;;;19.27;7.80;;;;;;;5.65;100.00;101331.84;5000037;28;20495;-75
2022/01/18 03:43:29;;;;;;;26.42;9.30;;;;;;;5.66;100.00;101326.81;5012349;28;20384;-75
2022/01/18 03:46:01;;;;;;;23.08;9.38;;;;;;;5.68;100.00;101329.47;5011673;28;20101;-76
2022/01/18 03:48:33;;;;;;;20.42;8.48;;;;;;;5.73;100.00;101337.47;5012271;28;20049;-75
2022/01/18 03:51:04;;;;;;;19.83;8.95;;;;;;;5.77;100.00;101339.38;5012024;28;20054;-76
2022/01/18 03:53:32;;;;;;;27.05;9.38;;;;;;;5.79;100.00;101337.78;5011981;28;20141;-77
2022/01/18 03:56:03;;;;;;;23.73;8.65;;;;;;;5.84;100.00;101344.97;5011434;28;20566;-76
2022/01/18 03:58:33;;;;;;;19.73;7.60;;;;;;;5.88;100.00;101338.31;5011819;28;20133;-78
2022/01/18 04:01:02;;;;;;;22.00;8.57;;;;;;;5.92;100.00;101337.72;5031745;28;20057;-77
2022/01/18 04:03:31;;;;;;;19.13;7.97;;;;;;;5.93;100.00;101336.91;5031461;28;20128;-76
2022/01/18 04:06:00;;;;;;;20.13;8.77;;;;;;;5.96;100.00;101332.00;5032626;28;20053;-76
2022/01/18 04:08:28;;;;;;;14.85;7.28;;;;;;;5.97;100.00;101328.59;5020310;28;20105;-76
2022/01/18 04:10:57;;;;;;;16.58;7.50;;;;;;;5.97;100.00;101328.59;5031614;28;20045;-75
2022/01/18 04:13:27;;;;;;;17.00;7.53;;;;;;;5.98;100.00;101329.47;5026416;28;20468;-75
2022/01/18 04:15:55;;;;;;;15.43;7.70;;;;;;;5.94;100.00;101320.75;5029779;28;20077;-74
2022/01/18 04:18:30;;;;;;;19.35;7.85;;;;;;;5.91;100.00;101329.91;5031304;28;20046;-76
2022/01/18 04:29:16;;;;;;;16.50;7.18;;;;;;;5.99;100.00;101324.44;5010978;28;20061;-75
2022/01/18 04:31:45;;;;;;;15.95;7.20;;;;;;;5.99;100.00;101331.28;5008361;28;20100;-76
2022/01/18 04:34:14;;;;;;;24.20;9.02;;;;;;;5.99;100.00;101332.16;4991674;28;20050;-76
2022/01/18 04:36:45;;;;;;;17.75;7.68;;;;;;;6.00;100.00;101328.81;5004669;28;20136;-75
2022/01/18 04:39:13;;;;;;;20.20;7.75;;;;;;;6.01;100.00;101330.56;4977342;28;20459;-75
2022/01/18 04:41:43;;;;;;;19.92;8.30;;;;;;;5.99;100.00;101321.00;4991657;28;20061;-75
2022/01/18 04:49:52;;;;;;;17.73;8.15;;;;;;;5.95;100.00;101335.34;4988943;28;20103;-74
2022/01/18 04:52:21;;;;;;;17.73;7.85;;;;;;;5.99;100.00;101332.16;5009602;28;20060;-74
2022/01/18 04:54:58;;;;;;;19.30;7.85;;;;;;;5.98;100.00;101335.53;4991220;28;20106;-75
2022/01/18 05:00:12;;;;;;;22.17;8.68;;;;;;;5.99;100.00;101337.28;4985753;28;20104;-75
2022/01/18 05:02:42;;;;;;;22.33;9.15;;;;;;;5.98;100.00;101332.97;4998746;28;20043;-76
2022/01/18 05:05:18;;;;;;;21.05;8.73;;;;;;;5.97;100.00;101330.31;4997496;28;20097;-76
2022/01/18 05:07:47;;;;;;;17.40;6.63;;;;;;;5.98;100.00;101330.41;5014733;28;20104;-75
2022/01/18 05:10:19;;;;;;;18.17;7.35;;;;;;;5.95;100.00;101319.03;4992973;28;20057;-74
2022/01/18 05:12:51;;;;;;;18.00;7.30;;;;;;;5.92;100.00;101330.00;4991584;28;20050;-75
2022/01/18 05:15:37;;;;;;;20.75;8.15;;;;;;;5.93;100.00;101330.88;5009702;28;20050;-75
2022/01/18 05:18:58;;;;;;;22.02;8.02;;;;;;;5.94;100.00;101341.28;5010341;28;20152;-76
2022/01/18 05:21:19;;;;;;;21.38;8.63;;;;;;;5.95;100.00;101343.03;4991548;28;20109;-74
2022/01/18 05:23:46;;;;;;;17.98;7.55;;;;;;;5.96;100.00;101342.25;4991124;28;20066;-77
2022/01/18 05:26:15;;;;;;;22.92;8.57;;;;;;;5.95;100.00;101344.72;5002451;28;20508;-76
2022/01/18 05:28:43;;;;;;;18.70;6.95;;;;;;;5.96;100.00;101339.69;5009770;28;20492;-77
2022/01/18 05:31:12;;;;;;;20.00;8.13;;;;;;;5.98;100.00;101340.66;5010284;28;20057;-76
2022/01/18 05:33:42;;;;;;;23.52;9.73;;;;;;;5.93;100.00;101329.19;4994928;28;20083;-76
2022/01/18 05:36:11;;;;;;;16.75;7.43;;;;;;;6.00;100.00;101333.03;4990338;28;20049;-75
2022/01/18 05:38:40;;;;;;;18.65;7.65;;;;;;;6.00;100.00;101328.81;5004153;28;20046;-77
2022/01/18 05:41:11;;;;;;;19.25;7.72;;;;;;;6.00;100.00;101331.38;4983479;28;20073;-76
2022/01/18 05:43:40;;;;;;;20.98;7.22;;;;;;;6.00;100.00;101333.94;5010044;28;20827;-76
2022/01/18 05:46:08;;;;;;;19.40;7.35;;;;;;;6.01;100.00;101330.56;5008649;28;20711;-77
2022/01/18 05:48:37;;;;;;;19.55;6.85;;;;;;;5.99;100.00;101326.13;5010052;28;20599;-75
2022/01/18 05:51:07;;;;;;;24.15;8.27;;;;;;;5.98;100.00;101324.34;4994993;28;20083;-76
2022/01/18 05:53:39;;;;;;;17.25;7.50;;;;;;;5.96;100.00;101339.69;5009777;28;20054;-75
2022/01/18 05:56:11;;;;;;;17.45;7.07;;;;;;;5.96;100.00;101342.25;5008922;28;20699;-76
2022/01/18 05:58:41;;;;;;;17.92;7.75;;;;;;;5.96;100.00;101341.38;4998208;28;20488;-74
2022/01/18 06:01:09;;;;;;;18.83;7.95;;;;;;;5.96;100.00;101342.25;4998156;28;20082;-74
2022/01/18 06:03:51;;;;;;;17.73;7.10;;;;;;;5.97;100.00;101343.16;5000181;28;20135;-75
2022/01/18 06:09:03;;;;;;;14.27;6.60;;;;;;;5.96;100.00;101349.97;4977628;28;20054;-76
2022/01/18 06:11:31;;;;;;;14.32;6.55;;;;;;;5.92;100.00;101332.56;4994045;28;20088;-75
2022/01/18 06:14:00;;;;;;;16.80;6.93;;;;;;;5.94;100.00;101343.84;4994491;28;20085;-75
2022/01/18 06:16:29;;;;;;;15.60;6.70;;;;;;;5.95;100.00;101340.47;4994573;28;20053;-76
2022/01/18 06:18:58;;;;;;;15.95;6.18;;;;;;;5.96;100.00;101331.09;4994064;28;20489;-75
2022/01/18 06:21:28;;;;;;;17.77;7.72;;;;;;;5.98;100.00;101339.75;4994354;28;20051;-76
2022/01/18 06:23:57;;;;;;;17.77;6.50;;;;;;;6.01;100.00;101345.09;4998859;28;20133;-75
2022/01/18 06:26:26;;;;;;;17.73;6.90;;;;;;;5.97;100.00;101328.59;5015918;28;20120;-76
2022/01/18 06:28:55;;;;;;;23.38;7.75;;;;;;;5.95;100.00;101331.88;5009700;28;20118;-76
2022/01/18 06:31:24;;;;;;;13.50;6.15;;;;;;;5.93;100.00;101336.91;5003202;28;20482;-76
2022/01/18 06:33:52;;;;;;;16.70;6.15;;;;;;;5.96;100.00;101336.25;4999074;28;20411;-76
2022/01/18 06:36:21;;;;;;;14.65;6.25;;;;;;;5.97;100.00;101336.31;5014744;28;20061;-76
2022/01/18 06:38:51;;;;;;;14.25;6.35;;;;;;;5.98;100.00;101322.69;5010844;28;20116;-75
2022/01/18 06:41:20;;;;;;;16.55;6.28;;;;;;;5.98;100.00;101325.25;4993375;28;20125;-76
2022/01/18 06:43:49;;;;;;;16.45;6.47;;;;;;;5.98;100.00;101322.69;4992960;28;20133;-75
2022/01/18 06:46:17;;;;;;;10.80;5.50;;;;;;;5.98;100.00;101324.34;4998056;28;20045;-75
2022/01/18 06:48:46;;;;;;;14.23;6.15;;;;;;;5.95;100.00;101325.06;5015319;28;20112;-75
2022/01/18 06:51:15;;;;;;;14.02;5.30;;;;;;;5.96;100.00;101326.84;5014049;28;20046;-76
2022/01/18 06:53:48;;;;;;;15.52;6.70;;;;;;;5.96;100.00;101326.84;5004300;28;20046;-75
2022/01/18 06:56:19;;;;;;;;;;;;;;;5.96;100.00;101325.97;4998912;28;20411;-75
2022/01/18 06:58:47;;;;;;;13.23;6.18;;;;;;;5.98;100.00;101332.06;5013772;28;20475;-75
2022/01/18 07:01:16;;;;;;;20.23;7.40;;;;;;;5.98;100.00;101338.09;5013519;28;20488;-75
2022/01/18 07:03:44;;;;;;;14.25;6.53;;;;;;;6.00;100.00;101335.59;5013713;28;20056;-75
2022/01/18 07:06:13;;;;;;;12.40;5.50;;;;;;;6.00;100.00;101343.31;5015697;28;20045;-75
2022/01/18 07:08:41;;;;;;;16.52;6.13;;;;;;;5.90;100.00;101329.03;4986519;28;20073;-75
2022/01/18 07:11:10;;;;;;;18.98;7.53;;;;;;;6.00;100.00;101359.63;4999554;28;20043;-75
2022/01/18 07:13:40;;;;;;;13.77;6.30;;;;;;;6.01;100.00;101358.81;4996902;28;20050;-75
2022/01/18 07:16:10;;;;;;;16.60;6.57;;;;;;;6.02;100.00;101363.16;5002194;28;20121;-75
2022/01/18 07:18:38;;;;;;;15.05;5.72;;;;;;;6.02;100.00;101357.13;5009669;28;20496;-76
2022/01/18 07:21:09;;;;;;;15.35;6.03;;;;;;;6.01;100.00;101363.06;5000680;28;20054;-75
2022/01/18 07:23:37;;;;;;;16.73;7.20;;;;;;;6.00;100.00;101364.78;4994814;28;20077;-76
2022/01/18 07:26:06;;;;;;;13.85;6.40;;;;;;;6.03;100.00;101357.22;5014336;28;20420;-76
2022/01/18 07:28:34;;;;;;;11.05;5.97;;;;;;;6.05;100.00;101357.31;5012174;28;20045;-75
2022/01/18 07:31:05;;;;;;;18.77;6.50;;;;;;;6.04;100.00;101356.41;5012096;28;20050;-75
2022/01/18 07:33:36;;;;;;;16.23;6.38;;;;;;;6.06;100.00;101348.81;4998334;28;20050;-75
2022/01/18 07:36:04;;;;;;;10.90;5.32;;;;;;;6.05;100.00;101342.78;5012829;28;20054;-75
2022/01/18 07:38:33;;;;;;;17.35;5.50;;;;;;;6.05;100.00;101342.78;5011854;28;20050;-76
2022/01/18 07:41:01;;;;;;;11.00;4.20;;;;;;;6.05;100.00;101353.06;5010656;28;20053;-75
2022/01/18 07:43:30;;;;;;;10.07;4.43;;;;;;;6.04;100.00;101350.41;4998960;28;20054;-75
2022/01/18 07:45:58;;;;;;;8.95;3.80;;;;;;;6.05;100.00;101352.19;4996685;28;20104;-75
2022/01/18 07:48:29;;;;;;;9.77;3.95;;;;;;;6.04;100.00;101341.00;5012057;28;20142;-75
2022/01/18 07:50:58;;;;;;;7.90;3.80;;;;;;;6.04;100.00;101355.53;4997576;28;20045;-75
2022/01/18 07:53:27;;;;;;;8.13;3.78;;;;;;;5.99;100.00;101346.69;5001041;28;20052;-76
2022/01/18 07:55:56;;;;;;;10.15;4.00;;;;;;;5.93;100.00;101347.16;4994194;28;20046;-76
2022/01/18 07:58:24;;;;;;;6.82;3.40;;;;;;;5.92;100.00;101354.81;5011767;28;20049;-75
2022/01/18 08:00:53;;;;;;;8.00;4.05;;;;;;;5.89;100.00;101355.53;5011463;28;20448;-75
2022/01/18 08:03:22;;;;;;;10.82;4.00;;;;;;;5.88;100.00;101349.47;5012636;28;20109;-74
2022/01/18 08:05:53;;;;;;;13.02;4.95;;;;;;;5.86;100.00;101355.31;5014910;28;20057;-75
2022/01/18 08:08:22;;;;;;;9.18;4.18;;;;;;;5.87;100.00;101354.53;5005556;28;20053;-74
2022/01/18 08:10:50;;;;;;;7.20;3.55;;;;;;;5.85;100.00;101358.69;4992652;28;20054;-75
2022/01/18 08:13:23;;;;;;;8.80;3.97;;;;;;;5.76;100.00;101348.78;4995641;28;20050;-75
2022/01/18 08:15:58;;;;;;;8.60;4.38;;;;;;;5.83;100.00;101365.44;5012234;28;20499;-75
2022/01/18 08:18:27;;;;;;;8.77;4.43;;;;;;;5.82;100.00;101361.09;5011504;28;20088;-75
2022/01/18 08:20:58;;;;;;;8.15;4.13;;;;;;;5.80;100.00;101355.88;5001099;28;20057;-75
2022/01/18 08:23:27;;;;;;;8.85;4.07;;;;;;;5.75;100.00;101359.84;4992377;28;20057;-75
2022/01/18 08:25:55;;;;;;;9.38;4.55;;;;;;;5.76;100.00;101363.31;5012866;28;20053;-75
2022/01/18 08:28:24;;;;;;;10.68;4.80;;;;;;;5.76;100.00;101364.19;5011481;28;20084;-75
2022/01/18 08:30:52;;;;;;;12.20;4.57;;;;;;;5.78;100.00;101371.97;5016657;28;20056;-75
2022/01/18 08:33:21;;;;;;;9.90;5.00;;;;;;;5.79;100.00;101378.88;5032952;28;20132;-75
2022/01/18 08:35:49;;;;;;;9.88;5.13;;;;;;;5.80;100.00;101376.41;5011126;28;20081;-75
2022/01/18 08:38:20;;;;;;;8.70;4.53;;;;;;;5.80;100.00;101380.66;5014171;28;20522;-74
2022/01/18 08:40:48;;;;;;;14.85;6.47;;;;;;;5.74;100.00;101381.19;5013867;28;20046;-76
2022/01/18 08:43:17;;;;;;;15.00;6.43;;;;;;;5.68;100.00;101378.28;5012920;28;20415;-76
2022/01/18 08:45:45;;;;;;;11.13;5.82;;;;;;;5.64;100.00;101382.31;5012060;28;20050;-76
2022/01/18 08:48:14;;;;;;;12.05;6.03;;;;;;;5.62;100.00;101381.34;5011703;28;20046;-75
2022/01/18 08:50:42;;;;;;;19.70;6.50;;;;;;;5.60;100.00;101393.19;5011602;28;20042;-76
2022/01/18 08:53:11;;;;;;;21.17;7.15;;;;;;;5.58;100.00;101381.94;5010564;28;20558;-75
2022/01/18 08:55:41;;;;;;;19.42;7.10;;;;;;;5.55;100.00;101379.22;5011004;28;20068;-75
2022/01/18 08:58:09;;;;;;;13.93;6.90;;;;;;;5.52;100.00;101367.84;5010099;28;20108;-74
2022/01/18 09:00:38;;;;;;;11.38;5.43;;;;;;;5.50;100.00;101372.91;5010672;28;20419;-75
2022/01/18 09:03:07;;;;;;;14.60;6.72;;;;;;;5.46;100.00;101381.22;5011133;28;20050;-75
2022/01/18 09:05:37;;;;;;;14.55;6.40;;;;;;;5.49;100.00;101389.09;5013623;28;20050;-75
2022/01/18 09:08:07;;;;;;;15.68;5.95;;;;;;;5.46;100.00;101383.78;5010309;28;20054;-75
2022/01/18 09:10:36;;;;;;;12.93;6.35;;;;;;;5.41;100.00;101386.09;5010755;28;20050;-75
2022/01/18 09:13:06;;;;;;;13.52;6.32;;;;;;;5.40;100.00;101391.13;5010402;28;20396;-75
2022/01/18 09:15:35;;;;;;;12.05;5.50;;;;;;;5.34;100.00;101388.19;5010624;28;20081;-76
2022/01/18 09:18:03;;;;;;;15.38;6.38;;;;;;;5.36;100.00;101401.97;5010485;28;20052;-74
2022/01/18 09:20:32;;;;;;;11.23;6.03;;;;;;;5.38;100.00;101408.09;5010412;28;20499;-75
2022/01/18 09:23:00;;;;;;;12.13;5.60;;;;;;;5.44;100.00;101411.03;5009992;28;20563;-77
2022/01/18 09:25:32;;;;;;;12.88;5.63;;;;;;;5.49;100.00;101404.50;5011361;28;20491;-76
2022/01/18 09:28:00;;;;;;;14.73;5.30;;;;;;;5.39;100.00;101391.91;5012035;28;20141;-76
2022/01/18 09:30:32;;;;;;;11.27;5.32;;;;;;;5.38;100.00;101402.97;5011076;28;20478;-77
2022/01/18 09:33:02;;;;;;;10.77;5.57;;;;;;;5.25;100.00;101399.66;5009975;28;20050;-76
2022/01/18 09:35:31;;;;;;;11.07;5.40;;;;;;;5.34;100.00;101411.28;5011211;28;20053;-76
2022/01/18 09:37:59;;;;;;;12.25;5.70;;;;;;;5.35;100.00;101410.50;5010015;28;20124;-76
2022/01/18 09:40:45;;;;;;;11.02;5.25;;;;;;;5.36;100.00;101419.94;5010699;28;20057;-76
2022/01/18 09:43:15;;;;;;;8.43;4.65;;;;;;;5.35;100.00;101420.75;5009687;28;20053;-77
2022/01/18 09:45:46;;;;;;;10.32;5.05;;;;;;;5.33;100.00;101415.50;5010176;28;20081;-77
2022/01/18 09:48:16;;;;;;;11.70;5.47;;;;;;;5.36;100.00;101422.50;5010061;28;20186;-77
2022/01/18 09:50:46;;;;;;;10.45;5.25;;;;;;;5.39;100.00;101412.44;5009792;28;20385;-77
2022/01/18 09:53:15;;;;;;;10.70;4.45;;;;;;;5.41;100.00;101406.63;5009804;28;20498;-77
2022/01/18 09:55:44;;;;;;;9.77;4.47;;;;;;;5.40;100.00;101407.38;5010243;28;20042;-77
2022/01/18 09:58:13;;;;;;;10.02;4.40;;;;;;;5.40;100.00;101411.66;5009720;28;20445;-77
2022/01/18 10:00:43;;;;;;;10.85;4.65;;;;;;;5.40;100.00;101420.22;5008921;28;20554;-76
2022/01/18 10:03:27;;;;;;;10.45;4.65;;;;;;;5.40;100.00;101427.03;5010002;28;20053;-78
2022/01/18 10:05:56;;;;;;;8.57;4.32;;;;;;;5.41;100.00;101424.59;5012197;28;20112;-77
2022/01/18 10:08:25;;;;;;;8.18;3.80;;;;;;;5.42;100.00;101422.88;5009082;28;20471;-77
2022/01/18 10:10:56;;;;;;;8.20;4.03;;;;;;;5.44;100.00;101416.19;5010217;28;20050;-77
2022/01/18 10:13:26;;;;;;;6.97;3.83;;;;;;;5.49;100.00;101417.34;5009356;28;20116;-76
2022/01/18 10:16:03;;;;;;;7.15;3.83;;;;;;;5.51;100.00;101418.31;5010409;28;20109;-77
2022/01/18 10:18:45;;;;;;;7.30;3.55;;;;;;;5.51;100.00;101413.19;5010132;28;20050;-76
2022/01/18 10:21:15;;;;;;;8.10;3.93;;;;;;;5.53;100.00;101411.59;5012279;28;20050;-77
2022/01/18 10:23:49;;;;;;;6.57;3.63;;;;;;;5.55;100.00;101419.41;5009312;28;20284;-78
2022/01/18 10:26:20;;;;;;;6.70;3.72;;;;;;;5.54;100.00;101413.34;5011755;28;20067;-77
2022/01/18 10:28:49;;;;;;;6.57;3.10;;;;;;;5.55;100.00;101416.84;5010427;28;20538;-77
2022/01/18 10:31:33;;;;;;;8.10;3.15;;;;;;;5.57;100.00;101431.53;5010192;28;20045;-77
2022/01/18 10:34:28;;;;;;;7.95;3.78;;;;;;;5.59;100.00;101427.38;5008330;28;20112;-77
2022/01/18 10:37:02;;;;;;;6.35;3.40;;;;;;;5.63;100.00;101431.88;5010158;28;20045;-76
2022/01/18 10:39:34;;;;;;;7.07;3.17;;;;;;;5.65;100.00;101430.28;5008437;28;20079;-76
2022/01/18 10:42:13;;;;;;;7.25;3.22;;;;;;;5.66;100.00;101437.22;5008838;28;20129;-77
2022/01/18 10:44:45;;;;;;;5.07;2.65;;;;;;;5.69;100.00;101436.50;5009824;28;20108;-77
2022/01/18 10:47:14;;;;;;;5.53;3.05;;;;;;;5.67;100.00;101433.84;5009886;28;20097;-75
2022/01/18 10:49:47;;;;;;;5.50;2.50;;;;;;;5.61;100.00;101430.00;5012732;28;20109;-76
2022/01/18 10:52:18;;;;;;;5.25;2.40;;;;;;;5.56;100.00;101437.44;5012414;28;20061;-76
2022/01/18 10:54:49;;;;;;;5.18;2.40;;;;;;;5.59;100.00;101437.66;5013219;28;20061;-77
2022/01/18 10:57:21;;;;;;;5.78;2.38;;;;;;;5.62;100.00;101442.06;5010768;28;20050;-77
2022/01/18 10:59:50;;;;;;;5.47;2.60;;;;;;;5.60;100.00;101439.41;5013487;28;20049;-77
2022/01/18 11:02:21;;;;;;;5.95;3.03;;;;;;;5.55;100.00;101435.69;5012093;28;20535;-77
2022/01/18 11:04:54;;;;;;;5.10;2.78;;;;;;;5.52;100.00;101429.47;5013269;28;20050;-77
2022/01/18 11:07:25;;;;;;;4.20;2.10;;;;;;;5.53;100.00;101421.00;5013072;28;20085;-77
2022/01/18 11:09:54;;;;;;;5.25;2.10;;;;;;;5.57;100.00;101407.53;5012833;28;20067;-75
2022/01/18 11:12:27;;;;;;;5.20;2.88;;;;;;;5.52;100.00;101402.13;5012049;28;20046;-76
2022/01/18 11:15:05;;;;;;;6.60;2.92;;;;;;;5.44;100.00;101409.34;5013258;28;20088;-77
2022/01/18 11:17:39;;;;;;;6.15;2.70;;;;;;;5.45;100.00;101423.97;5012319;28;20046;-77
2022/01/18 11:20:11;;;;;;;5.25;2.60;;;;;;;5.49;100.00;101427.59;5012544;28;20629;-77
2022/01/18 11:22:40;;;;;;;6.65;3.10;;;;;;;5.54;100.00;101415.91;5012902;28;20504;-78
2022/01/18 11:25:10;;;;;;;4.45;2.47;;;;;;;5.54;100.00;101420.19;5012225;28;20045;-76
2022/01/18 11:27:42;;;;;;;4.55;2.60;;;;;;;5.54;100.00;101407.34;5014435;28;20085;-76
2022/01/18 11:30:12;;;;;;;4.75;2.80;;;;;;;5.51;100.00;101418.31;5012585;28;20431;-74
2022/01/18 11:32:40;;;;;;;4.60;2.70;;;;;;;5.54;100.00;101433.88;5011775;28;20521;-76
2022/01/18 11:35:17;;;;;;;4.97;2.65;;;;;;;5.57;100.00;101430.66;5012451;28;20046;-76
2022/01/18 11:38:02;;;;;;;6.93;3.22;;;;;;;5.57;100.00;101408.44;5012878;28;20054;-75
2022/01/18 11:40:47;;;;;;;6.43;3.10;;;;;;;5.53;100.00;101411.59;5011523;28;20088;-75
2022/01/18 11:43:16;;;;;;;6.75;3.22;;;;;;;5.55;100.00;101404.88;5012751;28;20096;-76
2022/01/18 11:45:45;;;;;;;8.32;3.65;;;;;;;5.59;100.00;101411.97;5013202;28;20056;-75
2022/01/18 11:48:17;;;;;;;9.23;3.97;;;;;;;5.61;100.00;101414.63;5011978;28;20074;-75
2022/01/18 11:50:51;;;;;;;6.53;2.97;;;;;;;5.65;100.00;101412.31;5012333;28;20085;-76
2022/01/18 11:53:24;;;;;;;8.10;3.65;;;;;;;5.67;100.00;101413.31;4999001;28;20140;-75
2022/01/18 11:55:55;;;;;;;5.18;3.30;;;;;;;5.66;100.00;101408.97;5012290;28;20053;-74
2022/01/18 11:58:24;;;;;;;6.63;3.55;;;;;;;5.62;100.00;101414.72;5013038;28;20075;-75
2022/01/18 12:00:56;;;;;;;7.68;3.55;;;;;;;5.60;100.00;101423.13;5014632;28;20046;-75
2022/01/18 12:03:28;;;;;;;7.13;3.53;;;;;;;5.63;100.00;101439.59;5012133;28;20457;-76
2022/01/18 12:05:58;;;;;;;5.90;3.25;;;;;;;5.65;100.00;101438.00;5014832;28;20052;-76
2022/01/18 12:08:42;;;;;;;5.93;3.13;;;;;;;5.69;100.00;101440.78;5013011;28;20157;-75
2022/01/18 12:11:13;;;;;;;9.50;4.10;;;;;;;5.70;100.00;101434.81;5012407;28;20459;-75
2022/01/18 12:13:58;;;;;;;6.97;3.60;;;;;;;5.66;100.00;101434.66;5012343;28;20053;-74
2022/01/18 12:16:29;;;;;;;8.05;4.10;;;;;;;5.60;100.00;101434.28;5012048;28;20069;-75
2022/01/18 12:19:04;;;;;;;7.95;3.90;;;;;;;5.64;100.00;101436.22;5011658;28;20129;-75
2022/01/18 12:21:36;;;;;;;9.00;3.80;;;;;;;5.69;100.00;101433.06;5012281;28;20053;-75
2022/01/18 12:24:19;;;;;;;7.80;3.43;;;;;;;5.72;100.00;101418.72;4998507;28;20089;-75
2022/01/18 12:26:58;;;;;;;7.50;3.33;;;;;;;5.73;100.00;101414.50;5013413;28;20386;-75
2022/01/18 12:32:29;;;;;;;6.55;3.13;;;;;;;5.74;100.00;101436.78;4993787;28;20153;-76
2022/01/18 12:35:02;;;;;;;6.32;3.20;;;;;;;5.77;100.00;101439.53;5004996;28;20112;-76